Time;durP1;ratioP1;P1;durP2;ratioP2;P2;SDS_P1;SDS_P2;PMS_P1;PMS_P2;Temp;Humidity;BMP_temperature;BMP_pressure;BME280_temperature;BME280_humidity;BME280_pressure;Samples;Min_cycle;Max_cycle;Signal;HPM_P1;HPM_P2
2023/09/05 00:02:24;;;;;;;9.07;6.80;;;;;;;;;;5050651;28;20068;-62
2023/09/05 00:04:50;;;;;;;8.35;7.47;;;;;;;;;;5061276;28;20036;-63
2023/09/05 00:07:16;;;;;;;8.68;7.63;;;;;;;;;;5058740;28;20482;-61
2023/09/05 00:09:43;;;;;;;8.95;8.05;;;;;;;;;;5061367;28;20052;-61
2023/09/05 00:12:09;;;;;;;11.98;8.20;;;;;;;;;;5056653;28;20130;-63
2023/09/05 00:14:36;;;;;;;10.40;7.57;;;;;;;;;;5062657;28;20446;-62
2023/09/05 00:17:02;;;;;;;8.88;7.68;;;;;;;;;;5060931;28;20198;-63
2023/09/05 00:19:29;;;;;;;10.00;8.50;;;;;;;;;;5056841;28;20253;-63
2023/09/05 00:21:55;;;;;;;10.68;7.72;;;;;;;;;;5060388;28;20119;-62
2023/09/05 00:24:38;;;;;;;9.45;8.07;;;;;;;;;;5061613;28;20112;-62
2023/09/05 00:27:09;;;;;;;11.07;7.80;;;;;;;;;;5052145;28;20274;-62
2023/09/05 00:29:36;;;;;;;9.80;7.50;;;;;;;;;;5058773;28;20507;-62
2023/09/05 00:32:03;;;;;;;10.55;7.45;;;;;;;;;;5059942;28;20067;-62
2023/09/05 00:34:39;;;;;;;9.50;7.63;;;;;;;;;;5040146;28;20044;-62
2023/09/05 00:37:08;;;;;;;9.57;8.18;;;;;;;;;;5059386;28;20059;-63
2023/09/05 00:39:37;;;;;;;10.48;8.35;;;;;;;;;;5058030;28;20440;-63
2023/09/05 00:42:05;;;;;;;9.07;8.05;;;;;;;;;;5050252;28;20048;-63
2023/09/05 00:44:32;;;;;;;8.77;7.88;;;;;;;;;;5046567;28;20444;-62
2023/09/05 00:47:00;;;;;;;11.18;8.57;;;;;;;;;;5041296;28;20048;-62
2023/09/05 00:49:30;;;;;;;11.35;8.45;;;;;;;;;;5040816;28;20524;-63
2023/09/05 00:51:57;;;;;;;11.43;8.02;;;;;;;;;;5040495;28;20041;-62
2023/09/05 00:54:23;;;;;;;11.05;8.43;;;;;;;;;;5033254;28;20101;-62
2023/09/05 00:56:49;;;;;;;7.88;6.53;;;;;;;;;;5050992;28;20541;-61
2023/09/05 00:59:16;;;;;;;9.82;8.27;;;;;;;;;;5047941;28;20185;-60
2023/09/05 01:01:42;;;;;;;8.55;7.45;;;;;;;;;;5053566;28;20214;-61
2023/09/05 01:04:08;;;;;;;10.57;7.88;;;;;;;;;;5049882;28;20238;-61
2023/09/05 01:06:41;;;;;;;9.75;8.05;;;;;;;;;;5053332;28;20139;-61
2023/09/05 01:09:18;;;;;;;11.80;9.07;;;;;;;;;;5053429;28;20279;-60
2023/09/05 01:11:45;;;;;;;10.25;8.65;;;;;;;;;;5047321;28;20040;-62
2023/09/05 01:14:11;;;;;;;8.50;7.60;;;;;;;;;;5046076;28;20377;-61
2023/09/05 01:16:43;;;;;;;9.63;8.63;;;;;;;;;;5045331;28;20338;-61
2023/09/05 01:19:12;;;;;;;11.18;8.18;;;;;;;;;;5040364;28;20516;-62
2023/09/05 01:21:41;;;;;;;8.77;7.43;;;;;;;;;;5039816;28;20469;-62
2023/09/05 01:24:13;;;;;;;9.77;7.78;;;;;;;;;;5050716;28;20454;-62
2023/09/05 01:26:39;;;;;;;10.18;9.13;;;;;;;;;;5041237;28;20420;-62
2023/09/05 01:29:06;;;;;;;11.00;8.75;;;;;;;;;;5050535;28;20217;-62
2023/09/05 01:31:32;;;;;;;9.40;7.43;;;;;;;;;;5034689;28;20480;-61
2023/09/05 01:33:59;;;;;;;13.18;8.75;;;;;;;;;;5049690;28;20343;-62
2023/09/05 01:36:25;;;;;;;10.30;9.07;;;;;;;;;;5052151;28;20158;-62
2023/09/05 01:38:51;;;;;;;9.95;8.68;;;;;;;;;;5055656;28;20467;-62
2023/09/05 01:41:17;;;;;;;8.38;7.13;;;;;;;;;;5044068;28;20178;-61
2023/09/05 01:43:43;;;;;;;9.95;8.20;;;;;;;;;;5043771;28;20128;-62
2023/09/05 01:46:10;;;;;;;10.05;8.05;;;;;;;;;;5038075;28;20248;-61
2023/09/05 01:48:36;;;;;;;10.45;7.97;;;;;;;;;;5044570;28;20115;-62
2023/09/05 01:51:03;;;;;;;11.00;8.35;;;;;;;;;;5037208;28;20144;-62
2023/09/05 01:53:29;;;;;;;9.68;7.47;;;;;;;;;;5040766;28;20036;-62
2023/09/05 01:55:57;;;;;;;9.80;8.02;;;;;;;;;;5050691;28;20115;-62
2023/09/05 01:58:24;;;;;;;10.93;8.48;;;;;;;;;;5045284;28;20305;-62
2023/09/05 02:00:50;;;;;;;10.50;8.10;;;;;;;;;;5054112;28;20052;-62
2023/09/05 02:03:16;;;;;;;9.52;7.95;;;;;;;;;;5043769;28;20311;-61
2023/09/05 02:05:42;;;;;;;8.07;6.70;;;;;;;;;;5045883;28;20063;-62
2023/09/05 02:08:09;;;;;;;8.68;6.90;;;;;;;;;;5051584;28;20035;-61
2023/09/05 02:10:35;;;;;;;10.05;7.93;;;;;;;;;;5049053;28;20040;-62
2023/09/05 02:13:01;;;;;;;12.68;7.82;;;;;;;;;;5056520;28;20223;-61
2023/09/05 02:15:28;;;;;;;8.40;7.45;;;;;;;;;;5048756;28;20041;-62
2023/09/05 02:17:55;;;;;;;9.20;8.30;;;;;;;;;;5052765;28;20043;-62
2023/09/05 02:20:23;;;;;;;10.98;8.80;;;;;;;;;;5048808;28;20347;-62
2023/09/05 02:22:49;;;;;;;12.32;8.80;;;;;;;;;;5059454;28;20205;-62
2023/09/05 02:25:15;;;;;;;10.02;7.75;;;;;;;;;;5056015;28;20066;-62
2023/09/05 02:27:41;;;;;;;9.77;7.85;;;;;;;;;;5047702;28;20613;-61
2023/09/05 02:30:07;;;;;;;9.93;7.70;;;;;;;;;;5044430;28;20267;-62
2023/09/05 02:32:34;;;;;;;9.20;8.10;;;;;;;;;;5052626;28;20035;-61
2023/09/05 02:35:01;;;;;;;11.02;8.70;;;;;;;;;;5050816;28;20068;-62
2023/09/05 02:37:27;;;;;;;10.48;7.22;;;;;;;;;;5060067;28;20040;-62
2023/09/05 02:39:53;;;;;;;9.82;7.43;;;;;;;;;;5044301;28;20201;-62
2023/09/05 02:42:20;;;;;;;8.82;7.55;;;;;;;;;;5058760;28;20052;-62
2023/09/05 02:44:46;;;;;;;8.55;6.93;;;;;;;;;;5047991;28;20072;-62
2023/09/05 02:47:12;;;;;;;8.13;7.30;;;;;;;;;;5047627;28;20080;-62
2023/09/05 02:49:38;;;;;;;8.15;6.63;;;;;;;;;;5043213;28;20041;-62
2023/09/05 02:52:04;;;;;;;10.20;8.07;;;;;;;;;;5060439;28;20032;-62
2023/09/05 02:54:30;;;;;;;10.15;7.28;;;;;;;;;;5044809;28;20261;-63
2023/09/05 02:56:56;;;;;;;9.15;8.00;;;;;;;;;;5059149;28;20052;-62
2023/09/05 02:59:23;;;;;;;12.27;8.18;;;;;;;;;;5052736;28;20223;-61
2023/09/05 03:01:49;;;;;;;8.55;7.63;;;;;;;;;;5062461;28;20133;-62
2023/09/05 03:04:15;;;;;;;11.55;7.88;;;;;;;;;;5041192;28;20559;-62
2023/09/05 03:06:41;;;;;;;9.13;7.32;;;;;;;;;;5060941;28;20553;-61
2023/09/05 03:09:07;;;;;;;9.43;7.80;;;;;;;;;;5057390;28;20024;-62
2023/09/05 03:11:33;;;;;;;9.43;7.65;;;;;;;;;;5058851;28;20340;-61
2023/09/05 03:14:01;;;;;;;11.45;7.25;;;;;;;;;;5054000;28;20036;-62
2023/09/05 03:16:28;;;;;;;8.60;7.07;;;;;;;;;;5057525;28;20301;-61
2023/09/05 03:18:59;;;;;;;9.73;7.65;;;;;;;;;;5049203;28;20071;-61
2023/09/05 03:21:26;;;;;;;11.38;7.88;;;;;;;;;;5054211;28;20044;-62
2023/09/05 03:23:52;;;;;;;10.18;7.28;;;;;;;;;;5053009;28;20180;-62
2023/09/05 03:26:19;;;;;;;10.02;7.15;;;;;;;;;;5053600;28;20036;-61
2023/09/05 03:28:47;;;;;;;9.65;7.78;;;;;;;;;;5052014;28;20568;-61
2023/09/05 03:31:13;;;;;;;10.63;8.30;;;;;;;;;;5051621;28;20313;-61
2023/09/05 03:33:40;;;;;;;9.52;7.22;;;;;;;;;;5060343;28;20533;-61
2023/09/05 03:36:06;;;;;;;11.57;8.00;;;;;;;;;;5057625;28;20404;-62
2023/09/05 03:38:32;;;;;;;11.75;7.47;;;;;;;;;;5047807;28;20287;-62
2023/09/05 03:40:59;;;;;;;10.18;8.20;;;;;;;;;;5051444;28;20278;-61
2023/09/05 03:43:25;;;;;;;9.50;7.90;;;;;;;;;;5054638;28;20059;-62
2023/09/05 03:45:51;;;;;;;11.60;8.45;;;;;;;;;;5050649;28;20112;-62
2023/09/05 03:48:17;;;;;;;8.45;7.15;;;;;;;;;;5050336;28;20067;-62
2023/09/05 03:50:43;;;;;;;10.18;7.68;;;;;;;;;;5046273;28;20241;-62
2023/09/05 03:53:11;;;;;;;10.40;7.18;;;;;;;;;;5046398;28;20541;-62
2023/09/05 03:55:37;;;;;;;11.32;7.32;;;;;;;;;;5049629;28;20447;-61
2023/09/05 03:58:04;;;;;;;8.15;7.10;;;;;;;;;;5050547;28;20248;-61
2023/09/05 04:00:30;;;;;;;9.88;8.05;;;;;;;;;;5040351;28;20226;-61
2023/09/05 04:02:57;;;;;;;14.20;7.63;;;;;;;;;;5046857;28;20071;-61
2023/09/05 04:05:24;;;;;;;12.35;8.15;;;;;;;;;;5042777;28;20043;-61
2023/09/05 04:07:50;;;;;;;10.82;9.57;;;;;;;;;;5053087;28;20282;-61
2023/09/05 04:10:16;;;;;;;11.90;9.35;;;;;;;;;;5046923;28;20036;-62
2023/09/05 04:12:42;;;;;;;14.45;9.98;;;;;;;;;;5050120;28;20047;-62
2023/09/05 04:15:08;;;;;;;8.30;7.38;;;;;;;;;;5050565;28;20056;-63
2023/09/05 04:17:35;;;;;;;11.07;7.68;;;;;;;;;;5046479;28;20293;-61
2023/09/05 04:20:01;;;;;;;11.55;8.05;;;;;;;;;;5050892;28;20089;-62
2023/09/05 04:22:27;;;;;;;9.02;7.90;;;;;;;;;;5053759;28;20086;-61
2023/09/05 04:24:57;;;;;;;9.02;7.25;;;;;;;;;;5047400;28;20388;-61
2023/09/05 04:27:23;;;;;;;11.35;8.52;;;;;;;;;;5047816;28;20098;-61
2023/09/05 04:29:54;;;;;;;15.70;8.63;;;;;;;;;;5044866;28;20068;-62
2023/09/05 04:32:32;;;;;;;12.23;8.45;;;;;;;;;;5043372;28;20093;-61
2023/09/05 04:34:59;;;;;;;10.10;7.72;;;;;;;;;;5053374;28;20158;-62
2023/09/05 04:37:26;;;;;;;10.02;8.20;;;;;;;;;;5056611;28;20441;-61
2023/09/05 04:39:52;;;;;;;9.23;8.30;;;;;;;;;;5054488;28;20531;-62
2023/09/05 04:42:18;;;;;;;9.13;7.28;;;;;;;;;;5060620;28;20052;-62
2023/09/05 04:44:44;;;;;;;11.48;7.95;;;;;;;;;;5043746;28;20051;-62
2023/09/05 04:47:20;;;;;;;11.70;8.45;;;;;;;;;;5044211;28;20447;-62
2023/09/05 04:49:47;;;;;;;11.35;7.93;;;;;;;;;;5054019;28;20716;-62
2023/09/05 04:52:14;;;;;;;8.98;6.93;;;;;;;;;;5055415;28;20227;-62
2023/09/05 04:54:41;;;;;;;7.90;6.38;;;;;;;;;;5046324;28;20055;-61
2023/09/05 04:57:07;;;;;;;13.70;7.85;;;;;;;;;;5042149;28;20044;-62
2023/09/05 04:59:33;;;;;;;13.30;8.85;;;;;;;;;;5046349;28;20040;-62
2023/09/05 05:01:59;;;;;;;19.60;8.25;;;;;;;;;;5045342;28;20044;-62
2023/09/05 05:04:25;;;;;;;8.63;7.57;;;;;;;;;;5046628;28;20049;-62
2023/09/05 05:06:52;;;;;;;8.63;7.38;;;;;;;;;;5051762;28;20197;-62
2023/09/05 05:09:18;;;;;;;10.77;7.45;;;;;;;;;;5049963;28;20049;-62
2023/09/05 05:11:44;;;;;;;11.63;9.38;;;;;;;;;;5052339;28;20363;-61
2023/09/05 05:14:10;;;;;;;10.27;7.93;;;;;;;;;;5050540;28;20580;-62
2023/09/05 05:16:36;;;;;;;11.73;8.63;;;;;;;;;;5056299;28;20040;-62
2023/09/05 05:19:03;;;;;;;7.93;6.75;;;;;;;;;;5047301;28;20036;-63
2023/09/05 05:21:30;;;;;;;9.48;8.57;;;;;;;;;;5032712;28;20040;-62
2023/09/05 05:23:56;;;;;;;10.88;8.48;;;;;;;;;;5053463;28;20049;-62
2023/09/05 05:26:23;;;;;;;11.90;8.88;;;;;;;;;;5050512;28;20070;-63
2023/09/05 05:28:49;;;;;;;9.73;8.23;;;;;;;;;;5050717;28;20489;-61
2023/09/05 05:31:15;;;;;;;10.82;7.85;;;;;;;;;;5053043;28;20327;-62
2023/09/05 05:33:41;;;;;;;10.77;8.35;;;;;;;;;;5065386;28;20055;-61
2023/09/05 05:36:07;;;;;;;10.32;8.32;;;;;;;;;;5056305;28;20040;-63
2023/09/05 05:38:33;;;;;;;11.38;8.43;;;;;;;;;;5052862;28;20138;-63
2023/09/05 05:41:01;;;;;;;9.52;8.13;;;;;;;;;;5049836;28;20048;-62
2023/09/05 05:43:29;;;;;;;10.20;7.78;;;;;;;;;;5050689;28;20571;-62
2023/09/05 05:45:55;;;;;;;10.73;7.60;;;;;;;;;;5049111;28;20040;-62
2023/09/05 05:48:21;;;;;;;10.50;8.02;;;;;;;;;;5057965;28;20297;-62
2023/09/05 05:50:47;;;;;;;12.15;8.52;;;;;;;;;;5056571;28;20122;-63
2023/09/05 05:53:14;;;;;;;9.07;7.10;;;;;;;;;;5053815;28;20247;-62
2023/09/05 05:55:40;;;;;;;10.05;7.53;;;;;;;;;;5057222;28;20502;-62
2023/09/05 05:58:06;;;;;;;9.30;8.05;;;;;;;;;;5051542;28;20088;-62
2023/09/05 06:00:32;;;;;;;10.90;8.02;;;;;;;;;;5049273;28;20055;-61
2023/09/05 06:02:58;;;;;;;9.98;7.45;;;;;;;;;;5043019;28;20256;-62
2023/09/05 06:05:24;;;;;;;9.55;7.60;;;;;;;;;;5052717;28;20076;-62
2023/09/05 06:07:51;;;;;;;10.82;8.10;;;;;;;;;;5058552;28;20051;-63
2023/09/05 06:10:17;;;;;;;10.50;7.28;;;;;;;;;;5059604;28;20259;-62
2023/09/05 06:12:43;;;;;;;9.68;7.30;;;;;;;;;;5062844;28;20052;-62
2023/09/05 06:15:10;;;;;;;11.52;7.90;;;;;;;;;;5058359;28;20208;-60
2023/09/05 06:17:36;;;;;;;10.45;7.85;;;;;;;;;;5042805;28;20044;-61
2023/09/05 06:20:02;;;;;;;10.18;7.05;;;;;;;;;;5052292;28;20116;-61
2023/09/05 06:22:31;;;;;;;8.43;6.72;;;;;;;;;;5062169;28;20584;-61
2023/09/05 06:24:57;;;;;;;9.38;6.68;;;;;;;;;;5054285;28;20298;-61
2023/09/05 06:27:23;;;;;;;9.52;7.20;;;;;;;;;;5071976;28;20537;-61
2023/09/05 06:29:49;;;;;;;7.95;6.15;;;;;;;;;;5065624;28;20045;-61
2023/09/05 06:32:17;;;;;;;8.13;6.45;;;;;;;;;;5058698;28;20040;-61
2023/09/05 06:34:43;;;;;;;11.65;7.35;;;;;;;;;;5054712;28;20112;-61
2023/09/05 06:37:10;;;;;;;8.75;6.15;;;;;;;;;;5057756;28;20148;-62
2023/09/05 06:39:36;;;;;;;7.90;6.32;;;;;;;;;;5059511;28;20101;-62
2023/09/05 06:42:02;;;;;;;10.65;7.10;;;;;;;;;;5056692;28;20093;-61
2023/09/05 06:44:31;;;;;;;10.57;6.63;;;;;;;;;;5053944;28;20044;-61
2023/09/05 06:46:58;;;;;;;7.32;5.85;;;;;;;;;;5054759;28;20328;-61
2023/09/05 06:49:24;;;;;;;8.57;6.22;;;;;;;;;;5061500;28;20224;-61
2023/09/05 06:51:50;;;;;;;8.68;6.75;;;;;;;;;;5061988;28;20037;-61
2023/09/05 06:54:16;;;;;;;6.93;5.75;;;;;;;;;;5059462;28;20173;-61
2023/09/05 06:56:42;;;;;;;8.05;5.45;;;;;;;;;;5052791;28;20738;-61
2023/09/05 06:59:17;;;;;;;7.72;5.15;;;;;;;;;;5050007;28;20037;-61
2023/09/05 07:01:46;;;;;;;6.57;5.82;;;;;;;;;;5049930;28;20561;-63
2023/09/05 07:04:13;;;;;;;9.38;6.18;;;;;;;;;;5052961;28;20110;-61
2023/09/05 07:06:39;;;;;;;9.43;6.80;;;;;;;;;;5052475;28;20179;-61
2023/09/05 07:09:06;;;;;;;7.85;4.93;;;;;;;;;;5053131;28;20037;-62
2023/09/05 07:11:33;;;;;;;8.15;6.03;;;;;;;;;;5050213;28;20070;-61
2023/09/05 07:13:59;;;;;;;6.88;5.45;;;24.00;90.80;;;;;;5048288;28;20075;-61
2023/09/05 07:16:25;;;;;;;6.32;4.50;;;18.60;99.90;;;;;;5069199;28;20527;-61
2023/09/05 07:18:51;;;;;;;5.10;4.28;;;;;;;;;;5054205;28;20101;-61
2023/09/05 07:21:17;;;;;;;7.00;4.32;;;;;;;;;;5077931;28;20422;-62
2023/09/05 07:23:43;;;;;;;7.00;4.47;;;;;;;;;;5056656;28;20403;-63
2023/09/05 07:26:09;;;;;;;5.18;3.97;;;;;;;;;;5059307;28;20624;-61
2023/09/05 07:28:35;;;;;;;6.35;5.25;;;;;;;;;;5054394;28;20132;-61
2023/09/05 07:31:02;;;;;;;6.13;4.28;;;;;;;;;;5057686;28;20479;-61
2023/09/05 07:33:28;;;;;;;6.15;5.00;;;;;;;;;;5054343;28;20558;-61
2023/09/05 07:35:56;;;;;;;7.95;4.82;;;;;;;;;;5058689;28;20388;-61
2023/09/05 07:38:22;;;;;;;6.28;4.53;;;;;;;;;;5056406;28;20041;-61
2023/09/05 07:40:48;;;;;;;8.52;4.15;;;;;;;;;;5060127;28;20079;-62
2023/09/05 07:43:14;;;;;;;6.15;5.07;;;;;;;;;;5059450;28;20052;-62
2023/09/05 07:45:41;;;;;;;6.13;4.05;;;;;;;;;;5052918;28;20116;-62
2023/09/05 07:48:08;;;;;;;4.32;3.53;;;;;;;;;;5052235;28;20033;-62
2023/09/05 07:50:35;;;;;;;5.38;4.28;;;;;;;;;;5062140;28;20578;-60
2023/09/05 07:53:01;;;;;;;6.05;4.47;;;;;;;;;;5047888;28;20045;-61
2023/09/05 07:55:27;;;;;;;4.70;3.60;;;;;;;;;;5048580;28;20314;-62
2023/09/05 07:57:55;;;;;;;6.40;4.22;;;;;;;;;;5046086;28;20124;-61
2023/09/05 08:00:26;;;;;;;5.00;3.72;;;;;;;;;;5050487;28;20329;-61
2023/09/05 08:02:52;;;;;;;6.20;3.88;;;;;;;;;;5051167;28;20280;-62
2023/09/05 08:05:19;;;;;;;5.65;3.88;;;;;;;;;;5055128;28;20087;-61
2023/09/05 08:07:46;;;;;;;6.60;3.85;;;;;;;;;;5042558;28;20037;-62
2023/09/05 08:10:12;;;;;;;5.28;3.60;;;;;;;;;;5048504;28;20211;-61
2023/09/05 08:12:38;;;;;;;7.13;3.85;;;;;;;;;;5046557;28;20584;-61
2023/09/05 08:15:05;;;;;;;6.20;3.47;;;;;;;;;;5054296;28;20044;-61
2023/09/05 08:17:32;;;;;;;5.07;3.47;;;;;;;;;;5052232;28;20217;-61
2023/09/05 08:20:04;;;;;;;4.45;3.03;;;;;;;;;;5043628;28;20092;-61
2023/09/05 08:22:32;;;;;;;5.82;3.45;;;;;;;;;;5049937;28;20400;-61
2023/09/05 08:24:59;;;;;;;6.47;3.78;;;;;;;;;;5048864;28;20120;-62
2023/09/05 08:27:28;;;;;;;4.30;3.25;;;;;;;;;;5053000;28;20630;-62
2023/09/05 08:29:55;;;;;;;5.88;4.63;;;;;;;;;;5046679;28;20040;-62
2023/09/05 08:32:22;;;;;;;6.40;4.68;;;;;;;;;;5047955;28;20570;-62
2023/09/05 08:34:48;;;;;;;6.38;3.78;;;;;;;;;;5050773;28;20044;-61
2023/09/05 08:37:14;;;;;;;4.53;3.50;;;;;;;;;;5050272;28;20112;-61
2023/09/05 08:39:40;;;;;;;6.28;3.80;;;;;;;;;;5046479;28;20052;-62
2023/09/05 08:42:07;;;;;;;4.75;3.42;;;;;;;;;;5051479;28;20511;-62
2023/09/05 08:44:37;;;;;;;4.47;3.40;;;;;;;;;;5041060;28;20488;-62
2023/09/05 08:47:03;;;;;;;6.13;3.90;;;;;;;;;;5052207;28;20064;-60
2023/09/05 08:49:30;;;;;;;6.32;3.50;;;;;;;;;;5051206;28;20048;-61
2023/09/05 08:51:57;;;;;;;5.72;2.88;;;;;;;;;;5052162;28;20124;-61
2023/09/05 08:54:25;;;;;;;5.30;3.60;;;;;;;;;;5048416;28;20040;-61
2023/09/05 08:56:52;;;;;;;5.22;3.38;;;;;;;;;;5050754;28;20656;-62
2023/09/05 08:59:18;;;;;;;9.10;3.08;;;18.40;99.80;;;;;;5048384;28;20055;-61
2023/09/05 09:01:44;;;;;;;4.65;3.38;;;;;;;;;;5050849;28;20492;-62
2023/09/05 09:04:12;;;;;;;6.07;2.85;;;;;;;;;;5050140;28;20326;-61
2023/09/05 09:06:38;;;;;;;4.40;2.80;;;;;;;;;;5050592;28;20222;-61
2023/09/05 09:09:05;;;;;;;5.57;3.00;;;;;;;;;;5055484;28;20040;-62
2023/09/05 09:11:32;;;;;;;5.55;2.92;;;;;;;;;;5048729;28;20053;-62
2023/09/05 09:13:59;;;;;;;5.32;3.22;;;;;;;;;;5049623;28;20044;-62
2023/09/05 09:16:26;;;;;;;4.03;2.58;;;;;;;;;;5047249;28;20251;-62
2023/09/05 09:19:04;;;;;;;3.63;2.65;;;;;;;;;;5048981;28;20052;-62
2023/09/05 09:21:31;;;;;;;4.00;2.92;;;;;;;;;;5067366;28;20453;-62
2023/09/05 09:24:01;;;;;;;7.30;3.22;;;;;;;;;;5062066;28;20036;-61
2023/09/05 09:26:27;;;;;;;3.30;2.40;;;;;;;;;;5065596;28;20522;-61
2023/09/05 09:28:53;;;;;;;5.07;3.13;;;;;;;;;;5063191;28;20484;-61
2023/09/05 09:31:24;;;;;;;3.83;2.88;;;;;;;;;;5066538;28;20724;-61
2023/09/05 09:33:55;;;;;;;4.60;2.50;;;;;;;;;;5034960;28;20648;-62
2023/09/05 09:36:21;;;;;;;4.23;2.50;;;;;;;;;;5036264;28;20813;-62
2023/09/05 09:38:47;;;;;;;4.13;2.47;;;;;;;;;;5053959;28;20322;-62
2023/09/05 09:41:16;;;;;;;4.55;2.92;;;;;;;;;;5057875;28;20511;-62
2023/09/05 09:43:42;;;;;;;3.67;2.58;;;;;;;;;;5050621;28;20132;-62
2023/09/05 09:46:08;;;;;;;3.47;2.40;;;;;;;;;;5046705;28;20510;-62
2023/09/05 09:48:35;;;;;;;3.38;2.25;;;;;;;;;;5047091;28;20040;-61
2023/09/05 09:51:05;;;;;;;4.78;2.22;;;;;;;;;;5045892;28;20655;-61
2023/09/05 09:53:34;;;;;;;3.00;2.13;;;;;;;;;;5044751;28;20048;-61
2023/09/05 09:56:02;;;;;;;4.63;2.45;;;;;;;;;;5034774;28;20557;-62
2023/09/05 09:58:29;;;;;;;3.90;2.28;;;;;;;;;;5048196;28;20051;-62
2023/09/05 10:00:56;;;;;;;6.55;2.55;;;;;;;;;;5044278;28;20124;-61
2023/09/05 10:03:24;;;;;;;4.35;2.83;;;21.60;99.70;;;;;;5043521;28;20602;-62
2023/09/05 10:05:52;;;;;;;6.88;2.72;;;24.70;97.50;;;;;;5045692;28;20186;-61
2023/09/05 10:08:19;;;;;;;4.25;2.90;;;24.80;97.40;;;;;;5044296;28;20624;-61
2023/09/05 10:10:46;;;;;;;5.20;2.67;;;24.90;97.30;;;;;;5046092;28;20127;-62
2023/09/05 10:13:14;;;;;;;4.00;2.47;;;25.00;97.20;;;;;;5044737;28;20488;-61
2023/09/05 10:15:41;;;;;;;8.65;2.20;;;25.10;97.20;;;;;;5043986;28;20068;-61
2023/09/05 10:18:12;;;;;;;4.28;2.65;;;25.20;97.10;;;;;;5045973;28;20213;-62
2023/09/05 10:20:40;;;;;;;3.33;2.17;;;25.30;97.10;;;;;;5047812;28;20076;-61
2023/09/05 10:23:06;;;;;;;5.53;2.90;;;25.40;97.00;;;;;;5046071;28;20271;-61
2023/09/05 10:25:36;;;;;;;5.18;2.58;;;25.50;97.00;;;;;;5045328;28;20251;-62
2023/09/05 10:28:02;;;;;;;3.53;2.50;;;;;;;;;;5066883;28;20671;-62
2023/09/05 10:30:29;;;;;;;9.15;3.00;;;;;;;;;;5060983;28;20068;-62
2023/09/05 10:32:57;;;;;;;3.17;2.60;;;25.60;96.90;;;;;;5060055;28;20071;-63
2023/09/05 10:35:24;;;;;;;5.50;2.95;;;;;;;;;;5052857;28;20044;-62
2023/09/05 10:38:01;;;;;;;5.03;2.80;;;;;;;;;;5054172;28;20279;-62
2023/09/05 10:40:37;;;;;;;4.15;2.22;;;;;;;;;;5056533;28;20548;-62
2023/09/05 10:43:05;;;;;;;3.83;2.33;;;;;;;;;;5060019;28;20195;-62
2023/09/05 10:45:32;;;;;;;5.20;2.72;;;;;;;;;;5042189;28;20282;-63
2023/09/05 10:48:00;;;;;;;3.47;2.38;;;;;;;;;;5043832;28;20048;-63
2023/09/05 10:50:26;;;;;;;3.47;2.05;;;;;;;;;;5045279;28;20571;-63
2023/09/05 10:53:11;;;;;;;3.13;2.25;;;;;;;;;;5055001;28;20076;-63
2023/09/05 10:55:44;;;;;;;3.67;2.45;;;;;;;;;;5049468;28;20724;-62
2023/09/05 10:58:29;;;;;;;3.63;2.40;;;;;;;;;;5055510;28;20260;-61
2023/09/05 11:00:55;;;;;;;3.42;2.03;;;26.00;96.70;;;;;;5040385;28;20033;-63
2023/09/05 11:03:20;;;;;;;3.13;2.00;;;27.10;95.10;;;;;;5053185;28;20110;-62
2023/09/05 11:05:47;;;;;;;3.13;2.30;;;;;;;;;;5043984;28;20041;-63
2023/09/05 11:08:23;;;;;;;2.80;1.83;;;27.10;95.10;;;;;;5062932;28;20040;-62
2023/09/05 11:10:55;;;;;;;4.78;2.38;;;;;;;;;;5047892;28;20033;-62
2023/09/05 11:13:21;;;;;;;2.63;1.95;;;;;;;;;;5063699;28;20036;-62
2023/09/05 11:15:47;;;;;;;4.45;1.92;;;;;;;;;;5049572;28;20068;-62
2023/09/05 11:18:15;;;;;;;6.25;2.40;;;27.30;94.50;;;;;;5063159;28;20192;-62
2023/09/05 11:20:46;;;;;;;10.82;2.88;;;27.60;93.80;;;;;;5052367;28;20336;-63
2023/09/05 11:23:12;;;;;;;3.33;1.90;;;;;;;;;;5064268;28;20112;-62
2023/09/05 11:25:43;;;;;;;3.20;2.08;;;;;;;;;;5057024;28;20058;-62
2023/09/05 11:28:09;;;;;;;5.43;2.33;;;27.60;93.60;;;;;;5066674;28;20078;-62
2023/09/05 11:30:42;;;;;;;3.90;2.63;;;;;;;;;;5053795;28;20195;-62
2023/09/05 11:33:09;;;;;;;2.90;2.05;;;;;;;;;;5054869;28;20343;-62
2023/09/05 11:35:35;;;;;;;2.92;1.92;;;27.90;93.20;;;;;;5054028;28;20431;-63
2023/09/05 11:38:04;;;;;;;2.53;2.00;;;28.20;92.60;;;;;;5052938;28;20199;-62
2023/09/05 11:40:30;;;;;;;2.72;1.75;;;28.20;92.50;;;;;;5058791;28;20175;-63
2023/09/05 11:43:03;;;;;;;3.50;1.85;;;28.30;92.30;;;;;;5061690;28;20173;-62
2023/09/05 11:45:32;;;;;;;3.10;2.10;;;28.30;91.90;;;;;;5046631;28;20515;-62
2023/09/05 11:47:59;;;;;;;4.63;2.40;;;28.40;91.90;;;;;;5050761;28;20036;-62
2023/09/05 11:50:26;;;;;;;2.92;2.03;;;28.50;91.70;;;;;;5060667;28;20188;-62
2023/09/05 11:52:53;;;;;;;4.38;2.17;;;;;;;;;;5053959;28;20628;-62
2023/09/05 11:55:23;;;;;;;3.90;2.00;;;;;;;;;;5070255;28;20040;-63
2023/09/05 11:57:53;;;;;;;2.42;1.55;;;;;;;;;;5058296;28;20240;-63
2023/09/05 12:00:23;;;;;;;3.72;2.05;;;;;;;;;;5056566;28;20280;-62
2023/09/05 12:02:51;;;;;;;3.28;1.92;;;;;;;;;;5055817;28;20197;-61
2023/09/05 12:05:19;;;;;;;2.88;2.10;;;;;;;;;;5061347;28;20097;-62
2023/09/05 12:07:51;;;;;;;2.53;1.67;;;;;;;;;;5057822;28;20287;-62
2023/09/05 12:10:18;;;;;;;3.28;2.10;;;28.50;91.60;;;;;;5061984;28;20051;-62
2023/09/05 12:12:54;;;;;;;3.10;1.75;;;;;;;;;;5060902;28;20045;-63
2023/09/05 12:15:30;;;;;;;3.88;2.10;;;;;;;;;;5063944;28;20051;-62
2023/09/05 12:17:56;;;;;;;3.13;2.13;;;;;;;;;;5065331;28;20044;-62
2023/09/05 12:20:23;;;;;;;2.80;1.77;;;29.20;90.90;;;;;;5062612;28;20664;-62
2023/09/05 12:22:49;;;;;;;2.47;1.65;;;;;;;;;;5065547;28;20107;-63
2023/09/05 12:25:16;;;;;;;2.40;1.83;;;;;;;;;;5065382;28;20116;-62
2023/09/05 12:27:43;;;;;;;3.08;1.85;;;29.50;90.50;;;;;;5063787;28;20024;-63
2023/09/05 12:30:23;;;;;;;3.40;2.05;;;;;;;;;;5064713;28;20264;-63
2023/09/05 12:32:50;;;;;;;2.80;1.88;;;;;;;;;;5064556;28;20035;-62
2023/09/05 12:35:15;;;;;;;5.63;2.40;;;29.70;90.30;;;;;;5063617;28;20063;-62
2023/09/05 12:37:41;;;;;;;3.38;2.00;;;;;;;;;;5058106;28;20342;-63
2023/09/05 12:40:08;;;;;;;4.20;1.75;;;;;;;;;;5059016;28;20315;-62
2023/09/05 12:42:34;;;;;;;4.30;1.77;;;;;;;;;;5061382;28;20269;-62
2023/09/05 12:45:00;;;;;;;2.95;1.98;;;29.90;90.20;;;;;;5060248;28;20115;-62
2023/09/05 12:47:26;;;;;;;5.53;1.67;;;;;;;;;;5055897;28;20291;-61
2023/09/05 12:49:53;;;;;;;3.60;1.75;;;30.20;89.50;;;;;;5048754;28;20067;-63
2023/09/05 12:52:21;;;;;;;4.25;2.38;;;30.30;88.80;;;;;;5057574;28;20080;-62
2023/09/05 12:54:50;;;;;;;2.95;1.90;;;;;;;;;;5054547;28;20327;-62
2023/09/05 12:57:16;;;;;;;2.55;1.67;;;30.50;88.60;;;;;;5063926;28;20181;-62
2023/09/05 12:59:42;;;;;;;2.53;1.70;;;30.60;87.90;;;;;;5049236;28;20280;-62
2023/09/05 13:02:08;;;;;;;3.35;1.80;;;30.70;87.40;;;;;;5049496;28;20507;-63
2023/09/05 13:04:34;;;;;;;2.20;1.55;;;30.70;87.30;;;;;;5046460;28;20186;-62
2023/09/05 13:06:59;;;;;;;3.10;2.10;;;30.80;87.10;;;;;;5054347;28;20472;-62
2023/09/05 13:09:25;;;;;;;5.35;2.63;;;30.90;87.00;;;;;;5057243;28;20071;-63
2023/09/05 13:11:51;;;;;;;3.05;2.00;;;30.90;86.60;;;;;;5058263;28;20042;-63
2023/09/05 13:14:17;;;;;;;2.50;1.73;;;31.00;86.50;;;;;;5051542;28;20470;-63
2023/09/05 13:16:43;;;;;;;2.65;1.73;;;31.10;86.50;;;;;;5062717;28;20048;-62
2023/09/05 13:19:09;;;;;;;2.72;1.50;;;31.20;86.30;;;;;;5052899;28;20193;-63
2023/09/05 13:21:35;;;;;;;3.03;1.95;;;31.20;86.00;;;;;;5072227;28;20188;-62
2023/09/05 13:24:01;;;;;;;5.03;2.13;;;31.30;85.60;;;;;;5052075;28;20167;-63
2023/09/05 13:26:28;;;;;;;1.98;1.38;;;31.40;85.40;;;;;;5058042;28;20106;-63
2023/09/05 13:28:54;;;;;;;3.15;1.77;;;31.40;85.10;;;;;;5058830;28;20045;-63
2023/09/05 13:31:20;;;;;;;3.05;1.88;;;31.50;84.90;;;;;;5061528;28;20752;-62
2023/09/05 13:33:46;;;;;;;2.83;1.80;;;;;;;;;;5041777;28;20297;-63
2023/09/05 13:36:12;;;;;;;2.80;2.08;;;;;;;;;;5044119;28;20116;-62
2023/09/05 13:38:38;;;;;;;2.25;1.75;;;;;;;;;;5047396;28;20037;-62
2023/09/05 13:41:04;;;;;;;2.28;1.55;;;;;;;;;;5054104;28;20424;-62
2023/09/05 13:43:31;;;;;;;2.90;1.40;;;;;;;;;;5049703;28;20523;-62
2023/09/05 13:45:57;;;;;;;3.78;1.77;;;31.60;84.80;;;;;;5048373;28;20051;-61
2023/09/05 13:48:23;;;;;;;2.92;1.92;;;;;;;;;;5052780;28;20278;-63
2023/09/05 13:50:49;;;;;;;2.97;2.00;;;;;;;;;;5051958;28;20047;-63
2023/09/05 13:53:16;;;;;;;2.42;2.08;;;32.00;83.50;;;;;;5053360;28;20047;-63
2023/09/05 13:55:41;;;;;;;4.80;2.72;;;32.10;83.00;;;;;;5049318;28;20325;-63
2023/09/05 13:58:09;;;;;;;2.95;1.85;;;32.20;83.20;;;;;;5052547;28;20028;-65
2023/09/05 14:00:34;;;;;;;2.22;1.70;;;32.30;83.30;;;;;;5053663;28;20037;-63
2023/09/05 14:03:00;;;;;;;1.95;1.50;;;32.30;83.20;;;;;;5055146;28;20056;-64
2023/09/05 14:05:26;;;;;;;2.67;1.70;;;32.40;82.40;;;;;;5053922;28;20259;-65
2023/09/05 14:07:52;;;;;;;3.60;1.65;;;32.40;82.40;;;;;;5057303;28;20029;-64
2023/09/05 14:10:17;;;;;;;3.47;1.60;;;32.40;82.20;;;;;;5056920;28;20082;-65
2023/09/05 14:12:43;;;;;;;3.17;1.70;;;32.50;82.10;;;;;;5052533;28;20116;-64
2023/09/05 14:15:09;;;;;;;1.90;1.40;;;32.50;81.50;;;;;;5056764;28;20048;-64
2023/09/05 14:17:35;;;;;;;3.05;1.73;;;32.60;81.40;;;;;;5058965;28;20322;-64